sensor_id;sensor_type;location;lat;lon;timestamp;P1;durP1;ratioP1;P2;durP2;ratioP2
40695;SDS011;40425;51.102;17.208;2022-12-29T07:44:35;7.27;;;2.80;;
40695;SDS011;40425;51.102;17.208;2022-12-29T07:49:36;11.17;;;4.03;;
40695;SDS011;40425;51.102;17.208;2022-12-29T07:54:37;5.57;;;3.17;;
40695;SDS011;40425;51.102;17.208;2022-12-29T07:59:38;5.63;;;3.10;;
40695;SDS011;40425;51.102;17.208;2022-12-29T08:04:39;5.63;;;2.70;;
40695;SDS011;40425;51.102;17.208;2022-12-29T08:09:40;6.97;;;2.50;;
40695;SDS011;40425;51.102;17.208;2022-12-29T08:14:40;4.60;;;2.93;;
40695;SDS011;40425;51.102;17.208;2022-12-29T08:19:41;4.63;;;2.53;;
40695;SDS011;40425;51.102;17.208;2022-12-29T08:24:42;3.97;;;1.90;;
40695;SDS011;40425;51.102;17.208;2022-12-29T08:29:43;3.83;;;1.70;;
40695;SDS011;40425;51.102;17.208;2022-12-29T08:34:44;6.57;;;2.50;;
40695;SDS011;40425;51.102;17.208;2022-12-29T08:39:46;5.80;;;2.13;;
40695;SDS011;40425;51.102;17.208;2022-12-29T08:44:46;5.55;;;2.40;;
40695;SDS011;40425;51.102;17.208;2022-12-29T08:49:47;7.15;;;2.25;;
40695;SDS011;40425;51.102;17.208;2022-12-29T08:54:48;4.43;;;2.15;;
40695;SDS011;40425;51.102;17.208;2022-12-29T08:59:49;6.20;;;1.95;;
40695;SDS011;40425;51.102;17.208;2022-12-29T09:04:50;4.63;;;1.90;;
40695;SDS011;40425;51.102;17.208;2022-12-29T09:09:52;4.72;;;2.22;;
40695;SDS011;40425;51.102;17.208;2022-12-29T09:14:53;4.75;;;1.90;;
40695;SDS011;40425;51.102;17.208;2022-12-29T09:19:54;5.63;;;1.85;;
40695;SDS011;40425;51.102;17.208;2022-12-29T09:24:55;4.20;;;1.90;;
40695;SDS011;40425;51.102;17.208;2022-12-29T09:29:56;5.03;;;1.65;;
40695;SDS011;40425;51.102;17.208;2022-12-29T09:34:57;3.60;;;1.83;;
40695;SDS011;40425;51.102;17.208;2022-12-29T09:39:58;3.95;;;2.03;;
40695;SDS011;40425;51.102;17.208;2022-12-29T09:50:26;3.95;;;2.05;;
40695;SDS011;40425;51.102;17.208;2022-12-29T09:55:39;5.90;;;1.95;;
40695;SDS011;40425;51.102;17.208;2022-12-29T10:00:49;5.90;;;2.25;;
40695;SDS011;40425;51.102;17.208;2022-12-29T10:06:36;3.88;;;1.67;;
40695;SDS011;40425;51.102;17.208;2022-12-29T10:22:13;3.75;;;2.05;;
40695;SDS011;40425;51.102;17.208;2022-12-29T10:27:23;4.57;;;1.50;;
40695;SDS011;40425;51.102;17.208;2022-12-29T10:37:46;3.38;;;1.40;;
40695;SDS011;40425;51.102;17.208;2022-12-29T10:42:58;16.02;;;6.70;;
40695;SDS011;40425;51.102;17.208;2022-12-29T10:48:00;26.35;;;10.20;;
40695;SDS011;40425;51.102;17.208;2022-12-29T10:53:09;30.90;;;10.63;;
40695;SDS011;40425;51.102;17.208;2022-12-29T10:58:35;32.55;;;13.55;;
40695;SDS011;40425;51.102;17.208;2022-12-29T11:03:43;49.03;;;18.00;;
40695;SDS011;40425;51.102;17.208;2022-12-29T11:09:09;40.17;;;16.52;;
40695;SDS011;40425;51.102;17.208;2022-12-29T11:14:21;31.60;;;10.70;;
40695;SDS011;40425;51.102;17.208;2022-12-29T11:19:32;45.05;;;18.75;;
40695;SDS011;40425;51.102;17.208;2022-12-29T11:24:33;39.72;;;16.13;;
40695;SDS011;40425;51.102;17.208;2022-12-29T11:29:45;38.20;;;17.50;;
40695;SDS011;40425;51.102;17.208;2022-12-29T11:34:46;27.00;;;12.75;;
40695;SDS011;40425;51.102;17.208;2022-12-29T11:44:58;17.40;;;8.17;;
40695;SDS011;40425;51.102;17.208;2022-12-29T11:50:25;17.48;;;8.57;;
40695;SDS011;40425;51.102;17.208;2022-12-29T11:55:31;10.82;;;5.78;;
40695;SDS011;40425;51.102;17.208;2022-12-29T12:00:34;10.35;;;4.68;;
40695;SDS011;40425;51.102;17.208;2022-12-29T12:05:50;11.65;;;6.07;;
40695;SDS011;40425;51.102;17.208;2022-12-29T12:16:27;16.38;;;9.00;;
40695;SDS011;40425;51.102;17.208;2022-12-29T12:21:41;13.15;;;5.47;;
40695;SDS011;40425;51.102;17.208;2022-12-29T12:26:49;8.03;;;5.37;;
40695;SDS011;40425;51.102;17.208;2022-12-29T12:31:57;12.60;;;5.43;;
40695;SDS011;40425;51.102;17.208;2022-12-29T12:37:02;10.63;;;4.03;;
40695;SDS011;40425;51.102;17.208;2022-12-29T12:49:17;14.02;;;6.22;;
40695;SDS011;40425;51.102;17.208;2022-12-29T12:59:30;15.30;;;7.05;;
40695;SDS011;40425;51.102;17.208;2022-12-29T13:05:34;21.00;;;10.15;;
40695;SDS011;40425;51.102;17.208;2022-12-29T13:11:02;13.60;;;7.22;;
40695;SDS011;40425;51.102;17.208;2022-12-29T13:27:01;12.63;;;5.95;;
40695;SDS011;40425;51.102;17.208;2022-12-29T13:37:18;11.63;;;4.85;;
40695;SDS011;40425;51.102;17.208;2022-12-29T13:42:22;9.77;;;4.57;;
40695;SDS011;40425;51.102;17.208;2022-12-29T13:52:32;10.57;;;4.57;;
40695;SDS011;40425;51.102;17.208;2022-12-29T14:08:17;9.60;;;3.97;;
40695;SDS011;40425;51.102;17.208;2022-12-29T14:13:19;11.45;;;6.40;;
40695;SDS011;40425;51.102;17.208;2022-12-29T14:18:23;13.40;;;5.25;;
40695;SDS011;40425;51.102;17.208;2022-12-29T14:23:41;7.53;;;4.63;;
40695;SDS011;40425;51.102;17.208;2022-12-29T14:28:47;8.82;;;5.47;;
40695;SDS011;40425;51.102;17.208;2022-12-29T14:39:26;9.05;;;4.60;;
40695;SDS011;40425;51.102;17.208;2022-12-29T14:44:28;8.95;;;4.75;;
40695;SDS011;40425;51.102;17.208;2022-12-29T14:49:31;13.77;;;6.30;;
40695;SDS011;40425;51.102;17.208;2022-12-29T14:54:43;12.02;;;6.05;;
40695;SDS011;40425;51.102;17.208;2022-12-29T14:59:50;12.63;;;6.57;;
40695;SDS011;40425;51.102;17.208;2022-12-29T15:04:54;8.83;;;4.90;;
40695;SDS011;40425;51.102;17.208;2022-12-29T15:10:03;11.10;;;5.80;;
40695;SDS011;40425;51.102;17.208;2022-12-29T15:20:23;10.57;;;5.50;;
40695;SDS011;40425;51.102;17.208;2022-12-29T15:25:31;8.83;;;5.60;;
40695;SDS011;40425;51.102;17.208;2022-12-29T15:30:32;10.07;;;6.23;;
40695;SDS011;40425;51.102;17.208;2022-12-29T15:35:34;9.33;;;5.93;;
40695;SDS011;40425;51.102;17.208;2022-12-29T15:40:36;10.90;;;6.80;;
40695;SDS011;40425;51.102;17.208;2022-12-29T15:45:37;11.90;;;6.97;;
40695;SDS011;40425;51.102;17.208;2022-12-29T15:50:38;7.63;;;5.23;;
40695;SDS011;40425;51.102;17.208;2022-12-29T15:55:43;10.07;;;6.27;;
40695;SDS011;40425;51.102;17.208;2022-12-29T16:00:48;13.83;;;7.77;;
40695;SDS011;40425;51.102;17.208;2022-12-29T16:05:55;14.37;;;8.37;;
40695;SDS011;40425;51.102;17.208;2022-12-29T16:11:25;15.00;;;7.63;;
40695;SDS011;40425;51.102;17.208;2022-12-29T16:16:31;11.20;;;6.50;;
40695;SDS011;40425;51.102;17.208;2022-12-29T16:21:38;11.00;;;6.90;;
40695;SDS011;40425;51.102;17.208;2022-12-29T16:26:51;12.93;;;7.03;;
40695;SDS011;40425;51.102;17.208;2022-12-29T16:31:59;10.23;;;5.77;;
40695;SDS011;40425;51.102;17.208;2022-12-29T16:47:35;24.53;;;13.43;;
40695;SDS011;40425;51.102;17.208;2022-12-29T16:52:36;13.83;;;8.40;;
40695;SDS011;40425;51.102;17.208;2022-12-29T16:57:37;18.03;;;7.67;;
40695;SDS011;40425;51.102;17.208;2022-12-29T17:02:37;13.93;;;6.47;;
40695;SDS011;40425;51.102;17.208;2022-12-29T17:07:45;10.90;;;6.00;;
40695;SDS011;40425;51.102;17.208;2022-12-29T17:12:47;12.17;;;6.77;;
40695;SDS011;40425;51.102;17.208;2022-12-29T17:17:48;14.53;;;7.60;;
40695;SDS011;40425;51.102;17.208;2022-12-29T17:22:51;11.43;;;7.07;;
40695;SDS011;40425;51.102;17.208;2022-12-29T17:27:54;12.77;;;7.20;;
40695;SDS011;40425;51.102;17.208;2022-12-29T17:38:12;10.53;;;6.23;;
40695;SDS011;40425;51.102;17.208;2022-12-29T17:43:20;9.80;;;5.80;;
40695;SDS011;40425;51.102;17.208;2022-12-29T17:48:22;11.73;;;6.30;;
40695;SDS011;40425;51.102;17.208;2022-12-29T17:53:24;14.00;;;6.67;;
40695;SDS011;40425;51.102;17.208;2022-12-29T17:58:28;23.87;;;14.57;;
40695;SDS011;40425;51.102;17.208;2022-12-29T18:03:33;16.07;;;9.60;;
40695;SDS011;40425;51.102;17.208;2022-12-29T18:08:37;13.47;;;7.20;;
40695;SDS011;40425;51.102;17.208;2022-12-29T18:13:39;12.07;;;6.70;;
40695;SDS011;40425;51.102;17.208;2022-12-29T18:18:40;12.70;;;6.97;;
40695;SDS011;40425;51.102;17.208;2022-12-29T18:23:41;11.70;;;7.40;;
40695;SDS011;40425;51.102;17.208;2022-12-29T18:28:41;12.57;;;7.30;;
40695;SDS011;40425;51.102;17.208;2022-12-29T18:33:43;14.70;;;7.83;;
40695;SDS011;40425;51.102;17.208;2022-12-29T18:38:45;17.00;;;8.93;;
40695;SDS011;40425;51.102;17.208;2022-12-29T18:43:50;15.83;;;8.03;;
40695;SDS011;40425;51.102;17.208;2022-12-29T18:48:52;13.07;;;8.60;;
40695;SDS011;40425;51.102;17.208;2022-12-29T18:53:53;10.77;;;7.40;;
40695;SDS011;40425;51.102;17.208;2022-12-29T18:58:55;15.70;;;7.87;;
40695;SDS011;40425;51.102;17.208;2022-12-29T19:03:56;14.67;;;8.77;;
40695;SDS011;40425;51.102;17.208;2022-12-29T19:08:58;12.33;;;8.17;;
40695;SDS011;40425;51.102;17.208;2022-12-29T19:13:59;17.40;;;9.93;;
40695;SDS011;40425;51.102;17.208;2022-12-29T19:19:01;14.53;;;8.57;;
40695;SDS011;40425;51.102;17.208;2022-12-29T19:24:03;20.13;;;10.23;;
40695;SDS011;40425;51.102;17.208;2022-12-29T19:29:06;15.27;;;8.63;;
40695;SDS011;40425;51.102;17.208;2022-12-29T19:34:13;16.73;;;9.30;;
40695;SDS011;40425;51.102;17.208;2022-12-29T19:39:15;15.17;;;7.50;;
40695;SDS011;40425;51.102;17.208;2022-12-29T19:44:17;12.30;;;7.90;;
40695;SDS011;40425;51.102;17.208;2022-12-29T19:49:19;12.60;;;7.73;;
40695;SDS011;40425;51.102;17.208;2022-12-29T19:54:21;14.03;;;8.00;;
40695;SDS011;40425;51.102;17.208;2022-12-29T19:59:23;12.27;;;7.60;;
40695;SDS011;40425;51.102;17.208;2022-12-29T20:04:24;12.87;;;7.77;;
40695;SDS011;40425;51.102;17.208;2022-12-29T20:09:26;14.77;;;7.77;;
40695;SDS011;40425;51.102;17.208;2022-12-29T20:14:27;14.33;;;7.80;;
40695;SDS011;40425;51.102;17.208;2022-12-29T20:19:29;15.37;;;8.07;;
40695;SDS011;40425;51.102;17.208;2022-12-29T20:24:31;13.67;;;8.13;;
40695;SDS011;40425;51.102;17.208;2022-12-29T20:29:34;13.13;;;7.93;;
40695;SDS011;40425;51.102;17.208;2022-12-29T20:34:40;15.10;;;8.73;;
40695;SDS011;40425;51.102;17.208;2022-12-29T20:39:42;13.37;;;8.70;;
40695;SDS011;40425;51.102;17.208;2022-12-29T20:44:44;16.37;;;8.57;;
40695;SDS011;40425;51.102;17.208;2022-12-29T20:49:46;15.40;;;9.33;;
40695;SDS011;40425;51.102;17.208;2022-12-29T20:54:48;16.70;;;9.27;;
40695;SDS011;40425;51.102;17.208;2022-12-29T20:59:49;15.73;;;9.47;;
40695;SDS011;40425;51.102;17.208;2022-12-29T21:04:50;17.17;;;9.87;;
40695;SDS011;40425;51.102;17.208;2022-12-29T21:09:51;16.47;;;9.77;;
40695;SDS011;40425;51.102;17.208;2022-12-29T21:14:51;16.43;;;9.90;;
40695;SDS011;40425;51.102;17.208;2022-12-29T21:19:52;17.70;;;10.07;;
40695;SDS011;40425;51.102;17.208;2022-12-29T21:24:53;15.33;;;10.07;;
40695;SDS011;40425;51.102;17.208;2022-12-29T21:29:54;15.47;;;8.80;;
40695;SDS011;40425;51.102;17.208;2022-12-29T21:34:57;15.43;;;9.17;;
40695;SDS011;40425;51.102;17.208;2022-12-29T21:39:57;15.20;;;8.97;;
40695;SDS011;40425;51.102;17.208;2022-12-29T21:44:59;13.43;;;9.07;;
40695;SDS011;40425;51.102;17.208;2022-12-29T21:50:18;18.43;;;12.20;;
40695;SDS011;40425;51.102;17.208;2022-12-29T21:55:19;15.77;;;9.53;;
40695;SDS011;40425;51.102;17.208;2022-12-29T22:00:20;17.70;;;10.77;;
40695;SDS011;40425;51.102;17.208;2022-12-29T22:05:41;16.87;;;10.00;;
40695;SDS011;40425;51.102;17.208;2022-12-29T22:11:04;22.60;;;10.93;;
40695;SDS011;40425;51.102;17.208;2022-12-29T22:16:27;18.83;;;9.83;;
40695;SDS011;40425;51.102;17.208;2022-12-29T22:21:28;27.93;;;13.80;;
40695;SDS011;40425;51.102;17.208;2022-12-29T22:26:29;20.20;;;12.50;;
40695;SDS011;40425;51.102;17.208;2022-12-29T22:31:30;22.57;;;13.23;;
40695;SDS011;40425;51.102;17.208;2022-12-29T22:36:31;30.37;;;15.90;;
40695;SDS011;40425;51.102;17.208;2022-12-29T22:41:32;34.90;;;17.43;;
40695;SDS011;40425;51.102;17.208;2022-12-29T22:46:33;31.03;;;16.40;;
40695;SDS011;40425;51.102;17.208;2022-12-29T22:51:34;22.47;;;12.50;;
40695;SDS011;40425;51.102;17.208;2022-12-29T22:56:35;40.53;;;18.73;;
40695;SDS011;40425;51.102;17.208;2022-12-29T23:01:41;37.00;;;19.17;;
40695;SDS011;40425;51.102;17.208;2022-12-29T23:06:41;34.60;;;16.37;;
40695;SDS011;40425;51.102;17.208;2022-12-29T23:11:43;51.47;;;23.93;;
40695;SDS011;40425;51.102;17.208;2022-12-29T23:16:44;20.57;;;10.33;;
40695;SDS011;40425;51.102;17.208;2022-12-29T23:21:45;23.83;;;11.53;;
40695;SDS011;40425;51.102;17.208;2022-12-29T23:26:46;33.57;;;15.43;;
40695;SDS011;40425;51.102;17.208;2022-12-29T23:31:47;14.20;;;8.17;;
40695;SDS011;40425;51.102;17.208;2022-12-29T23:36:48;16.30;;;7.87;;
40695;SDS011;40425;51.102;17.208;2022-12-29T23:41:50;14.70;;;8.60;;
40695;SDS011;40425;51.102;17.208;2022-12-29T23:46:51;12.53;;;6.97;;
40695;SDS011;40425;51.102;17.208;2022-12-29T23:51:52;12.67;;;7.57;;
40695;SDS011;40425;51.102;17.208;2022-12-29T23:56:53;13.53;;;8.77;;
